createdAt,value
2022-11-18T00:08:02.784Z,16.90
2022-11-18T00:18:07.988Z,15.70
2022-11-18T00:28:11.653Z,16.00
2022-11-18T00:38:15.316Z,15.10
2022-11-18T00:48:22.375Z,14.30
2022-11-18T00:58:26.238Z,16.60
2022-11-18T01:08:29.821Z,13.90
2022-11-18T01:18:33.777Z,16.30
2022-11-18T01:28:38.156Z,17.60
2022-11-18T01:38:41.719Z,15.60
2022-11-18T01:48:48.206Z,15.00
2022-11-18T01:58:58.111Z,15.50
2022-11-18T02:09:02.755Z,11.90
2022-11-18T02:19:33.411Z,11.40
2022-11-18T02:30:10.866Z,11.70
2022-11-18T02:40:20.506Z,12.60
2022-11-18T02:50:27.755Z,11.10
2022-11-18T03:00:32.710Z,8.90
2022-11-18T03:10:59.076Z,9.30
2022-11-18T03:21:09.096Z,7.90
2022-11-18T03:31:21.248Z,7.90
2022-11-18T03:41:26.699Z,6.90
2022-11-18T03:51:37.835Z,6.90
2022-11-18T04:01:49.038Z,8.10
2022-11-18T04:12:06.002Z,8.30
2022-11-18T04:22:10.583Z,6.60
2022-11-18T04:32:14.262Z,5.10
2022-11-18T04:42:17.933Z,4.80
2022-11-18T04:52:21.573Z,6.70
2022-11-18T05:02:25.360Z,5.10
2022-11-18T05:12:48.145Z,4.90
2022-11-18T05:22:51.914Z,4.30
2022-11-18T05:32:55.579Z,4.40
2022-11-18T05:43:11.527Z,4.70
2022-11-18T05:53:16.422Z,5.10
2022-11-18T06:03:30.561Z,5.10
2022-11-18T06:13:50.870Z,4.90
2022-11-18T06:23:55.591Z,5.40
2022-11-18T06:33:59.416Z,6.50
2022-11-18T06:44:04.073Z,7.30
2022-11-18T06:54:10.878Z,7.70
2022-11-18T07:04:15.439Z,6.30
2022-11-18T07:14:19.225Z,7.80
2022-11-18T07:24:22.969Z,8.80
2022-11-18T07:34:26.724Z,9.60
2022-11-18T07:44:30.708Z,8.90
2022-11-18T07:54:35.313Z,9.30
2022-11-18T08:04:40.153Z,9.80
2022-11-18T08:14:43.945Z,10.40
2022-11-18T08:24:48.217Z,12.00
2022-11-18T08:34:52.753Z,9.50
2022-11-18T08:44:56.574Z,9.20
2022-11-18T08:55:01.064Z,8.40
2022-11-18T09:05:05.343Z,8.50
2022-11-18T09:15:14.937Z,8.30
2022-11-18T09:25:19.106Z,7.40
2022-11-18T09:35:23.309Z,7.80
2022-11-18T09:45:38.822Z,9.30
2022-11-18T09:55:43.403Z,8.90
2022-11-18T10:06:07.732Z,12.80
2022-11-18T10:16:26.758Z,9.40
2022-11-18T10:26:43.519Z,8.30
2022-11-18T10:37:28.173Z,8.20
2022-11-18T10:47:43.157Z,6.60
2022-11-18T10:57:48.686Z,5.80
2022-11-18T11:08:35.770Z,5.40
2022-11-18T11:29:18.021Z,8.50
2022-11-18T11:39:34.190Z,8.60
2022-11-18T11:49:54.480Z,8.00
2022-11-18T12:00:12.553Z,8.50
2022-11-18T12:10:16.480Z,11.40
2022-11-18T12:20:42.597Z,9.30
2022-11-18T12:30:46.446Z,8.60
2022-11-18T12:40:53.057Z,10.90
2022-11-18T12:50:59.869Z,13.10
2022-11-18T13:01:11.210Z,10.20
2022-11-18T13:11:36.421Z,11.60
2022-11-18T13:21:59.739Z,11.50
2022-11-18T13:32:15.549Z,11.20
2022-11-18T13:42:28.085Z,11.10
2022-11-18T13:52:38.850Z,9.00
2022-11-18T14:02:46.954Z,11.90
2022-11-18T14:23:30.569Z,17.00
2022-11-18T14:33:37.167Z,16.60
2022-11-18T14:43:41.573Z,14.80
2022-11-18T14:53:45.548Z,15.10
2022-11-18T15:03:49.218Z,13.90
2022-11-18T15:13:53.080Z,16.50
2022-11-18T15:23:57.183Z,16.00
2022-11-18T15:34:06.635Z,16.00
2022-11-18T15:44:12.223Z,18.50
2022-11-18T15:54:16.187Z,18.10
2022-11-18T16:04:20.366Z,22.30
2022-11-18T16:14:25.127Z,19.80
2022-11-18T16:24:29.774Z,20.70
2022-11-18T16:34:34.501Z,18.90
2022-11-18T16:44:38.761Z,18.80
2022-11-18T16:54:45.597Z,19.40
2022-11-18T17:04:50.792Z,17.30
2022-11-18T17:14:54.782Z,17.90
2022-11-18T17:25:04.910Z,16.70
2022-11-18T17:35:10.382Z,17.80
2022-11-18T17:45:14.860Z,19.10
2022-11-18T17:55:19.058Z,17.60
2022-11-18T18:05:25.682Z,19.70
2022-11-18T18:15:30.800Z,19.10
2022-11-18T18:25:34.951Z,24.10
2022-11-18T18:35:42.171Z,22.60
2022-11-18T18:46:07.757Z,23.30
2022-11-18T18:56:12.754Z,19.00
2022-11-18T19:06:47.531Z,22.40
2022-11-18T19:16:43.515Z,20.30
2022-11-18T19:26:49.464Z,13.20
2022-11-18T19:36:57.188Z,20.60
2022-11-18T19:47:02.608Z,22.50
2022-11-18T19:57:11.243Z,18.60
2022-11-18T20:07:17.247Z,20.70
2022-11-18T20:17:25.126Z,17.10
2022-11-18T20:27:29.937Z,21.70
2022-11-18T20:37:35.826Z,20.90
2022-11-18T20:47:47.297Z,17.80
2022-11-18T20:57:53.115Z,19.60
2022-11-18T21:07:58.003Z,21.90
2022-11-18T21:18:02.884Z,23.00
2022-11-18T21:28:07.506Z,20.30
2022-11-18T21:38:12.405Z,21.40
2022-11-18T21:48:16.363Z,17.10
2022-11-18T21:58:20.451Z,21.70
2022-11-18T22:08:24.309Z,16.80
2022-11-18T22:18:36.872Z,18.10
2022-11-18T22:28:40.863Z,18.20
2022-11-18T22:38:46.037Z,18.40
2022-11-18T22:48:50.227Z,20.50
2022-11-18T22:58:54.392Z,17.60
2022-11-18T23:08:58.061Z,20.50
2022-11-18T23:19:03.947Z,19.90
2022-11-18T23:29:07.781Z,19.30
2022-11-18T23:39:12.598Z,17.50
2022-11-18T23:49:16.461Z,16.80
2022-11-18T23:59:21.230Z,17.70
